createdAt,value
2023-01-08T00:01:33.021Z,6.70
2023-01-08T00:04:02.302Z,6.90
2023-01-08T00:06:30.639Z,7.00
2023-01-08T00:08:58.792Z,6.90
2023-01-08T00:11:27.162Z,6.90
2023-01-08T00:13:55.460Z,7.00
2023-01-08T00:16:25.092Z,6.90
2023-01-08T00:18:53.583Z,6.60
2023-01-08T00:21:22.030Z,6.70
2023-01-08T00:23:50.558Z,6.70
2023-01-08T00:26:18.885Z,6.70
2023-01-08T00:28:47.149Z,6.70
2023-01-08T00:31:15.554Z,6.60
2023-01-08T00:33:45.160Z,6.70
2023-01-08T00:36:16.971Z,6.60
2023-01-08T00:38:46.929Z,6.70
2023-01-08T00:41:17.114Z,6.70
2023-01-08T00:43:45.362Z,6.70
2023-01-08T00:46:13.711Z,6.60
2023-01-08T00:48:41.898Z,6.60
2023-01-08T00:51:11.423Z,6.60
2023-01-08T00:53:39.641Z,6.70
2023-01-08T00:56:11.331Z,6.70
2023-01-08T00:58:39.735Z,6.80
2023-01-08T01:01:12.274Z,6.60
2023-01-08T01:03:40.656Z,6.60
2023-01-08T01:06:12.069Z,6.40
2023-01-08T01:08:40.632Z,6.40
2023-01-08T01:11:09.999Z,6.30
2023-01-08T01:13:38.611Z,6.30
2023-01-08T01:16:07.813Z,6.20
2023-01-08T01:18:36.128Z,6.10
2023-01-08T01:21:13.010Z,6.10
2023-01-08T01:23:41.836Z,5.90
2023-01-08T01:26:17.671Z,5.90
2023-01-08T01:28:49.811Z,5.80
2023-01-08T01:31:19.019Z,5.90
2023-01-08T01:33:48.030Z,5.70
2023-01-08T01:36:20.712Z,5.70
2023-01-08T01:38:52.325Z,5.60
2023-01-08T01:41:28.119Z,5.80
2023-01-08T01:43:59.882Z,6.00
2023-01-08T01:46:38.451Z,5.80
2023-01-08T01:49:11.553Z,5.80
2023-01-08T01:51:48.789Z,5.80
2023-01-08T01:54:19.109Z,5.80
2023-01-08T01:56:48.664Z,5.70
2023-01-08T01:59:17.527Z,5.60
2023-01-08T02:01:46.848Z,5.50
2023-01-08T02:04:15.779Z,5.60
2023-01-08T02:06:55.964Z,5.50
2023-01-08T02:09:42.048Z,5.40
2023-01-08T02:12:19.292Z,5.40
2023-01-08T02:15:11.362Z,5.40
2023-01-08T02:17:49.839Z,5.50
2023-01-08T02:20:24.739Z,5.60
2023-01-08T02:23:21.966Z,5.40
2023-01-08T02:26:11.688Z,5.40
2023-01-08T02:28:45.978Z,5.30
2023-01-08T02:31:17.246Z,5.40
2023-01-08T02:33:45.560Z,5.30
2023-01-08T02:36:33.471Z,5.20
2023-01-08T02:39:16.529Z,5.10
2023-01-08T02:42:10.403Z,5.00
2023-01-08T02:44:57.934Z,5.10
2023-01-08T02:47:37.922Z,5.10
2023-01-08T02:50:18.958Z,5.30
2023-01-08T02:52:59.694Z,5.20
2023-01-08T02:55:31.907Z,5.10
2023-01-08T02:58:02.517Z,4.90
2023-01-08T03:00:31.603Z,4.80
2023-01-08T03:03:10.184Z,4.70
2023-01-08T03:05:42.206Z,4.70
2023-01-08T03:08:12.088Z,4.70
2023-01-08T03:10:46.231Z,4.70
2023-01-08T03:13:22.589Z,4.70
2023-01-08T03:15:58.316Z,4.60
2023-01-08T03:18:35.790Z,4.60
2023-01-08T03:21:07.467Z,4.60
2023-01-08T03:23:39.667Z,4.60
2023-01-08T03:26:09.438Z,4.60
2023-01-08T03:28:46.510Z,4.60
2023-01-08T03:31:17.337Z,4.50
2023-01-08T03:33:47.627Z,4.50
2023-01-08T03:36:21.386Z,4.50
2023-01-08T03:38:57.940Z,4.40
2023-01-08T03:41:31.871Z,4.60
2023-01-08T03:44:01.521Z,4.60
2023-01-08T03:46:35.838Z,4.50
2023-01-08T03:49:07.852Z,4.40
2023-01-08T03:51:42.467Z,4.50
2023-01-08T03:54:15.159Z,4.40
2023-01-08T03:56:43.641Z,4.30
2023-01-08T03:59:14.852Z,4.50
2023-01-08T04:01:44.287Z,4.50
2023-01-08T04:04:13.187Z,4.50
2023-01-08T04:06:41.611Z,4.60
2023-01-08T04:09:10.239Z,4.60
2023-01-08T04:11:38.432Z,4.60
2023-01-08T04:14:06.619Z,4.60
2023-01-08T04:16:36.228Z,4.40
2023-01-08T04:19:04.614Z,4.30
2023-01-08T04:21:32.804Z,4.30
2023-01-08T04:24:00.965Z,4.40
2023-01-08T04:26:29.163Z,4.50
2023-01-08T04:28:57.415Z,4.50
2023-01-08T04:31:25.831Z,4.50
2023-01-08T04:33:55.419Z,4.40
2023-01-08T04:36:23.906Z,4.40
2023-01-08T04:38:52.136Z,4.40
2023-01-08T04:41:20.322Z,4.40
2023-01-08T04:43:48.529Z,4.40
2023-01-08T04:46:16.795Z,4.30
2023-01-08T04:48:45.001Z,4.30
2023-01-08T04:51:14.581Z,4.20
2023-01-08T04:53:42.732Z,4.10
2023-01-08T04:56:13.010Z,4.10
2023-01-08T04:58:41.882Z,4.10
2023-01-08T05:01:19.336Z,4.10
2023-01-08T05:03:47.974Z,4.10
2023-01-08T05:06:17.530Z,4.20
2023-01-08T05:08:45.675Z,4.30
2023-01-08T05:11:13.831Z,4.50
2023-01-08T05:13:42.171Z,4.50
2023-01-08T05:16:10.686Z,4.50
2023-01-08T05:18:38.891Z,4.50
2023-01-08T05:21:07.349Z,4.50
2023-01-08T05:23:37.049Z,4.70
2023-01-08T05:26:08.178Z,4.90
2023-01-08T05:28:36.377Z,5.00
2023-01-08T05:31:04.714Z,4.90
2023-01-08T05:33:32.979Z,4.80
2023-01-08T05:36:01.111Z,4.90
2023-01-08T05:38:29.323Z,4.90
2023-01-08T05:40:58.839Z,5.00
2023-01-08T05:43:27.437Z,5.10
2023-01-08T05:45:55.640Z,5.10
2023-01-08T05:48:24.023Z,5.10
2023-01-08T05:50:52.222Z,4.90
2023-01-08T05:53:20.649Z,4.80
2023-01-08T05:55:49.145Z,4.80
2023-01-08T05:58:19.230Z,4.70
2023-01-08T06:00:47.549Z,4.70
2023-01-08T06:03:15.724Z,4.60
2023-01-08T06:05:43.960Z,4.80
2023-01-08T06:08:12.090Z,4.60
2023-01-08T06:10:40.331Z,4.70
2023-01-08T06:13:09.176Z,4.80
2023-01-08T06:15:40.033Z,4.70
2023-01-08T06:18:08.438Z,4.70
2023-01-08T06:20:36.834Z,4.80
2023-01-08T06:23:05.083Z,4.60
2023-01-08T06:25:33.259Z,4.50
2023-01-08T06:28:01.457Z,4.40
2023-01-08T06:30:29.759Z,4.40
2023-01-08T06:33:00.086Z,4.60
2023-01-08T06:35:28.879Z,4.60
2023-01-08T06:37:57.518Z,4.80
2023-01-08T06:40:26.127Z,4.90
2023-01-08T06:42:54.290Z,4.90
2023-01-08T06:45:22.830Z,4.90
2023-01-08T06:47:50.965Z,4.80
2023-01-08T06:50:20.689Z,4.70
2023-01-08T06:52:54.964Z,4.90
2023-01-08T06:55:24.493Z,4.90
2023-01-08T06:57:55.531Z,5.00
2023-01-08T07:00:26.096Z,4.90
2023-01-08T07:02:54.766Z,4.80
2023-01-08T07:05:25.071Z,4.90
2023-01-08T07:07:53.555Z,4.90
2023-01-08T07:10:21.892Z,4.80
2023-01-08T07:12:50.475Z,4.90
2023-01-08T07:15:18.771Z,5.10
2023-01-08T07:17:46.968Z,5.10
2023-01-08T07:20:15.300Z,5.20
2023-01-08T07:22:44.870Z,5.30
2023-01-08T07:25:13.403Z,5.40
2023-01-08T07:27:41.663Z,5.50
2023-01-08T07:30:20.914Z,5.40
2023-01-08T07:33:01.036Z,5.50
2023-01-08T07:35:30.653Z,5.50
2023-01-08T07:38:00.207Z,5.60
2023-01-08T07:40:28.431Z,5.70
2023-01-08T07:43:01.374Z,5.80
2023-01-08T07:45:30.971Z,5.80
2023-01-08T07:48:00.232Z,5.80
2023-01-08T07:50:29.344Z,5.90
2023-01-08T07:53:01.228Z,6.00
2023-01-08T07:55:31.450Z,6.20
2023-01-08T07:58:00.062Z,6.30
2023-01-08T08:00:29.422Z,6.30
2023-01-08T08:03:03.793Z,6.40
2023-01-08T08:05:32.024Z,6.40
2023-01-08T08:08:02.080Z,6.50
2023-01-08T08:10:30.273Z,6.70
2023-01-08T08:12:58.432Z,6.70
2023-01-08T08:15:26.586Z,6.80
2023-01-08T08:17:54.892Z,6.90
2023-01-08T08:20:23.069Z,6.90
2023-01-08T08:22:51.516Z,7.00
2023-01-08T08:25:21.145Z,7.10
2023-01-08T08:27:51.681Z,7.30
2023-01-08T08:30:20.353Z,7.40
2023-01-08T08:32:48.615Z,7.40
2023-01-08T08:35:17.277Z,7.50
2023-01-08T08:37:45.685Z,7.40
2023-01-08T08:40:14.340Z,7.50
2023-01-08T08:42:43.897Z,7.40
2023-01-08T08:45:12.352Z,7.50
2023-01-08T08:47:41.074Z,7.60
2023-01-08T08:50:10.852Z,7.50
2023-01-08T08:52:39.065Z,7.40
2023-01-08T08:55:08.061Z,7.60
2023-01-08T08:57:36.211Z,7.70
2023-01-08T09:00:07.421Z,7.60
2023-01-08T09:02:35.809Z,7.50
2023-01-08T09:05:04.306Z,7.70
2023-01-08T09:07:32.778Z,7.60
2023-01-08T09:10:00.985Z,7.80
2023-01-08T09:12:29.171Z,7.80
2023-01-08T09:14:58.002Z,7.80
2023-01-08T09:17:27.626Z,8.00
2023-01-08T09:19:55.930Z,7.80
2023-01-08T09:22:24.233Z,7.70
2023-01-08T09:24:52.474Z,7.70
2023-01-08T09:27:20.701Z,7.60
2023-01-08T09:29:48.937Z,7.60
2023-01-08T09:32:17.088Z,7.50
2023-01-08T09:34:46.912Z,7.50
2023-01-08T09:37:15.118Z,7.30
2023-01-08T09:39:47.997Z,7.40
2023-01-08T09:42:20.697Z,7.30
2023-01-08T09:44:54.725Z,7.30
2023-01-08T09:47:30.340Z,7.30
2023-01-08T09:50:05.980Z,7.30
2023-01-08T09:52:34.463Z,7.40
2023-01-08T09:55:03.074Z,7.40
2023-01-08T09:57:31.469Z,7.40
2023-01-08T10:00:00.383Z,7.40
2023-01-08T10:02:31.225Z,7.50
2023-01-08T10:05:03.994Z,7.50
2023-01-08T10:07:32.295Z,7.50
2023-01-08T10:10:01.730Z,7.50
2023-01-08T10:12:33.961Z,7.50
2023-01-08T10:15:06.358Z,7.80
2023-01-08T10:17:41.186Z,7.70
2023-01-08T10:20:16.638Z,7.70
2023-01-08T10:22:45.668Z,7.60
2023-01-08T10:25:18.151Z,7.50
2023-01-08T10:27:53.116Z,7.60
2023-01-08T10:30:25.313Z,8.10
2023-01-08T10:32:57.315Z,8.10
2023-01-08T10:35:42.289Z,8.20
2023-01-08T10:38:28.456Z,8.40
2023-01-08T10:40:58.075Z,8.60
2023-01-08T10:43:32.375Z,8.70
2023-01-08T10:46:04.816Z,8.80
2023-01-08T10:48:40.184Z,8.80
2023-01-08T10:51:19.261Z,8.70
2023-01-08T10:53:47.970Z,8.80
2023-01-08T10:56:22.752Z,8.80
2023-01-08T10:58:52.326Z,8.90
2023-01-08T11:01:25.561Z,8.90
2023-01-08T11:03:58.041Z,8.90
2023-01-08T11:06:31.610Z,8.90
2023-01-08T11:09:04.510Z,9.00
2023-01-08T11:11:36.440Z,8.90
2023-01-08T11:14:21.591Z,9.00
2023-01-08T11:16:50.813Z,9.10
2023-01-08T11:19:24.753Z,9.30
2023-01-08T11:22:00.483Z,9.50
2023-01-08T11:24:32.309Z,9.50
2023-01-08T11:27:10.978Z,9.40
2023-01-08T11:29:46.648Z,9.30
2023-01-08T11:32:38.358Z,9.40
2023-01-08T11:35:16.214Z,9.30
2023-01-08T11:37:56.067Z,9.20
2023-01-08T11:40:40.638Z,9.20
2023-01-08T11:43:39.229Z,9.20
2023-01-08T11:46:27.747Z,9.20
2023-01-08T11:49:37.833Z,9.30
2023-01-08T11:52:35.416Z,9.40
2023-01-08T11:55:30.985Z,9.50
2023-01-08T11:58:23.185Z,9.40
2023-01-08T12:01:22.994Z,9.40
2023-01-08T12:04:10.398Z,9.70
2023-01-08T12:06:54.857Z,9.70
2023-01-08T12:09:40.978Z,9.50
2023-01-08T12:12:26.408Z,9.50
2023-01-08T12:15:13.636Z,9.50
2023-01-08T12:18:07.155Z,9.60
2023-01-08T12:20:40.484Z,9.60
2023-01-08T12:23:29.838Z,9.50
2023-01-08T12:26:18.321Z,9.60
2023-01-08T12:29:28.677Z,9.60
2023-01-08T12:32:22.536Z,9.70
2023-01-08T12:35:01.889Z,9.90
2023-01-08T12:37:40.319Z,9.90
2023-01-08T12:40:21.740Z,9.90
2023-01-08T12:43:00.534Z,9.80
2023-01-08T12:45:36.805Z,9.90
2023-01-08T12:48:09.411Z,10.00
2023-01-08T12:50:51.998Z,9.90
2023-01-08T12:53:35.464Z,9.80
2023-01-08T12:56:12.302Z,10.00
2023-01-08T12:58:59.821Z,10.00
2023-01-08T13:01:42.703Z,9.90
2023-01-08T13:04:13.692Z,9.80
2023-01-08T13:06:52.975Z,9.80
2023-01-08T13:09:27.719Z,10.00
2023-01-08T13:12:00.769Z,10.10
2023-01-08T13:14:29.948Z,10.00
2023-01-08T13:17:15.324Z,10.00
2023-01-08T13:19:52.079Z,10.00
2023-01-08T13:22:28.536Z,10.10
2023-01-08T13:25:27.459Z,10.00
2023-01-08T13:27:56.098Z,10.00
2023-01-08T13:30:42.191Z,10.00
2023-01-08T13:33:41.815Z,10.00
2023-01-08T13:36:26.161Z,10.00
2023-01-08T13:39:22.121Z,9.80
2023-01-08T13:42:18.980Z,9.90
2023-01-08T13:44:52.810Z,9.80
2023-01-08T13:47:34.699Z,9.80
2023-01-08T13:50:17.351Z,9.80
2023-01-08T13:52:55.996Z,9.80
2023-01-08T13:55:32.260Z,9.70
2023-01-08T13:58:05.902Z,9.60
2023-01-08T14:00:48.762Z,9.60
2023-01-08T14:03:26.915Z,9.60
2023-01-08T14:06:08.566Z,9.60
2023-01-08T14:08:36.891Z,9.70
2023-01-08T14:11:06.149Z,9.50
2023-01-08T14:13:38.080Z,9.40
2023-01-08T14:16:14.695Z,9.50
2023-01-08T14:18:43.609Z,9.30
2023-01-08T14:21:14.819Z,9.30
2023-01-08T14:23:48.835Z,9.40
2023-01-08T14:26:29.572Z,9.30
2023-01-08T14:28:58.591Z,9.10
2023-01-08T14:31:28.889Z,9.20
2023-01-08T14:34:00.399Z,9.10
2023-01-08T14:36:30.482Z,9.10
2023-01-08T14:38:58.697Z,9.00
2023-01-08T14:41:55.524Z,9.00
2023-01-08T14:44:36.534Z,9.10
2023-01-08T14:47:08.193Z,9.00
2023-01-08T14:49:43.140Z,9.00
2023-01-08T14:52:18.771Z,9.10
2023-01-08T14:54:50.144Z,9.00
2023-01-08T14:57:21.427Z,9.00
2023-01-08T14:59:57.767Z,9.00
2023-01-08T15:02:31.205Z,9.10
2023-01-08T15:05:06.174Z,8.90
2023-01-08T15:07:35.756Z,8.80
2023-01-08T15:10:03.969Z,9.00
2023-01-08T15:12:33.007Z,8.90
2023-01-08T15:15:11.898Z,8.80
2023-01-08T15:17:42.053Z,8.80
2023-01-08T15:20:20.063Z,8.70
2023-01-08T15:22:50.477Z,8.70
2023-01-08T15:25:29.376Z,8.60
2023-01-08T15:28:02.193Z,8.40
2023-01-08T15:30:37.435Z,8.50
2023-01-08T15:33:19.538Z,8.50
2023-01-08T15:35:48.984Z,8.30
2023-01-08T15:38:20.761Z,8.30
2023-01-08T15:40:49.919Z,8.20
2023-01-08T15:43:19.425Z,8.20
2023-01-08T15:45:50.159Z,8.20
2023-01-08T15:48:18.399Z,8.20
2023-01-08T15:50:47.032Z,8.10
2023-01-08T15:53:22.720Z,8.10
2023-01-08T15:55:52.202Z,8.10
2023-01-08T15:58:20.400Z,8.00
2023-01-08T16:00:48.833Z,8.10
2023-01-08T16:03:17.678Z,8.00
2023-01-08T16:05:46.034Z,7.90
2023-01-08T16:08:14.256Z,7.90
2023-01-08T16:10:43.971Z,7.80
2023-01-08T16:13:12.448Z,7.70
2023-01-08T16:15:43.215Z,7.70
2023-01-08T16:18:11.705Z,7.70
2023-01-08T16:20:40.233Z,7.70
2023-01-08T16:23:08.786Z,7.70
2023-01-08T16:25:39.857Z,7.60
2023-01-08T16:28:09.706Z,7.60
2023-01-08T16:30:41.354Z,7.60
2023-01-08T16:33:09.564Z,7.50
2023-01-08T16:35:37.770Z,7.50
2023-01-08T16:38:05.922Z,7.50
2023-01-08T16:40:34.124Z,7.50
2023-01-08T16:43:03.125Z,7.50
2023-01-08T16:45:32.853Z,7.40
2023-01-08T16:48:01.077Z,7.40
2023-01-08T16:50:29.239Z,7.40
2023-01-08T16:52:57.591Z,7.30
2023-01-08T16:55:26.623Z,7.30
2023-01-08T16:57:55.607Z,7.30
2023-01-08T17:00:24.243Z,7.40
2023-01-08T17:02:53.787Z,7.30
2023-01-08T17:05:22.036Z,7.30
2023-01-08T17:07:53.320Z,7.30
2023-01-08T17:10:21.928Z,7.40
2023-01-08T17:12:50.248Z,7.40
2023-01-08T17:15:18.657Z,7.40
2023-01-08T17:17:46.853Z,7.40
2023-01-08T17:20:19.597Z,7.40
2023-01-08T17:22:47.768Z,7.40
2023-01-08T17:25:16.147Z,7.30
2023-01-08T17:27:44.358Z,7.40
2023-01-08T17:30:14.995Z,7.30
2023-01-08T17:32:43.488Z,7.30
2023-01-08T17:35:11.714Z,7.20
2023-01-08T17:37:41.234Z,7.20
2023-01-08T17:40:12.640Z,7.30
2023-01-08T17:42:40.773Z,7.20
2023-01-08T17:45:10.596Z,7.20
2023-01-08T17:47:39.224Z,7.20
2023-01-08T17:50:08.212Z,7.20
2023-01-08T17:52:39.889Z,7.20
2023-01-08T17:55:08.996Z,7.10
2023-01-08T17:57:37.158Z,7.20
2023-01-08T18:00:06.763Z,7.20
2023-01-08T18:02:37.797Z,7.00
2023-01-08T18:05:07.042Z,7.10
2023-01-08T18:07:35.287Z,7.10
2023-01-08T18:10:06.181Z,7.10
2023-01-08T18:12:34.383Z,7.10
2023-01-08T18:15:02.520Z,7.00
2023-01-08T18:17:31.983Z,7.00
2023-01-08T18:20:00.225Z,7.10
2023-01-08T18:22:28.619Z,7.00
2023-01-08T18:24:56.773Z,6.90
2023-01-08T18:27:26.266Z,7.10
2023-01-08T18:29:55.073Z,7.10
2023-01-08T18:32:25.912Z,6.90
2023-01-08T18:34:54.378Z,6.90
2023-01-08T18:37:23.158Z,6.90
2023-01-08T18:39:51.558Z,7.00
2023-01-08T18:42:30.213Z,6.90
2023-01-08T18:45:00.467Z,6.90
2023-01-08T18:47:29.274Z,6.90
2023-01-08T18:49:59.748Z,6.90
2023-01-08T18:52:27.839Z,6.90
2023-01-08T18:54:55.954Z,6.80
2023-01-08T18:57:24.160Z,6.70
2023-01-08T18:59:52.336Z,6.70
2023-01-08T19:02:27.080Z,6.70
2023-01-08T19:04:55.357Z,6.50
2023-01-08T19:07:23.540Z,6.70
2023-01-08T19:09:52.164Z,6.80
2023-01-08T19:12:20.833Z,6.70
2023-01-08T19:14:49.575Z,6.60
2023-01-08T19:17:17.759Z,6.50
2023-01-08T19:19:47.360Z,6.60
2023-01-08T19:22:15.505Z,6.60
2023-01-08T19:24:43.888Z,6.60
2023-01-08T19:27:12.197Z,6.70
2023-01-08T19:29:40.781Z,6.60
2023-01-08T19:32:09.408Z,6.60
2023-01-08T19:34:38.090Z,6.70
2023-01-08T19:37:07.843Z,6.60
2023-01-08T19:39:36.346Z,6.60
2023-01-08T19:42:22.263Z,6.50
2023-01-08T19:44:50.445Z,6.40
2023-01-08T19:47:18.590Z,6.30
2023-01-08T19:49:48.728Z,6.20
2023-01-08T19:52:19.033Z,6.30
2023-01-08T19:54:47.864Z,6.20
2023-01-08T19:57:16.059Z,6.20
2023-01-08T19:59:44.368Z,6.30
2023-01-08T20:02:12.990Z,6.30
2023-01-08T20:04:43.138Z,6.10
2023-01-08T20:07:12.029Z,6.00
2023-01-08T20:09:42.403Z,6.10
2023-01-08T20:12:11.399Z,6.30
2023-01-08T20:14:39.612Z,6.40
2023-01-08T20:17:07.841Z,6.50
2023-01-08T20:19:36.521Z,6.40
2023-01-08T20:22:04.721Z,6.40
2023-01-08T20:24:33.059Z,6.50
2023-01-08T20:27:02.643Z,6.30
2023-01-08T20:29:32.572Z,6.10
2023-01-08T20:32:01.273Z,6.10
2023-01-08T20:34:29.446Z,6.00
2023-01-08T20:36:57.927Z,6.10
2023-01-08T20:39:26.526Z,5.90
2023-01-08T20:41:55.809Z,5.90
2023-01-08T20:44:33.529Z,6.00
2023-01-08T20:47:02.490Z,6.70
2023-01-08T20:49:30.805Z,6.00
2023-01-08T20:52:00.431Z,6.10
2023-01-08T20:54:30.400Z,6.00
2023-01-08T20:57:01.010Z,6.10
2023-01-08T20:59:30.350Z,6.00
2023-01-08T21:02:00.014Z,6.00
2023-01-08T21:04:31.503Z,5.90
2023-01-08T21:07:00.235Z,6.00
2023-01-08T21:09:28.490Z,6.10
2023-01-08T21:11:56.719Z,6.00
2023-01-08T21:14:24.930Z,6.10
2023-01-08T21:16:53.155Z,5.90
2023-01-08T21:19:22.869Z,6.00
2023-01-08T21:21:51.078Z,6.00
2023-01-08T21:24:20.257Z,6.10
2023-01-08T21:26:48.462Z,6.10
2023-01-08T21:29:19.751Z,6.10
2023-01-08T21:31:48.224Z,6.00
2023-01-08T21:34:16.486Z,6.10
2023-01-08T21:36:46.143Z,6.00
2023-01-08T21:39:14.413Z,5.90
2023-01-08T21:41:59.823Z,5.70
2023-01-08T21:44:45.668Z,5.70
2023-01-08T21:47:17.395Z,5.70
2023-01-08T21:49:46.523Z,5.80
2023-01-08T21:52:33.734Z,5.80
2023-01-08T21:55:02.056Z,5.70
2023-01-08T21:57:30.453Z,5.80
2023-01-08T21:59:58.591Z,5.70
2023-01-08T22:02:27.119Z,5.60
2023-01-08T22:04:57.022Z,5.80
2023-01-08T22:07:27.226Z,5.70
2023-01-08T22:09:55.901Z,5.60
2023-01-08T22:12:25.746Z,5.50
2023-01-08T22:14:54.650Z,5.60
2023-01-08T22:17:24.560Z,5.80
2023-01-08T22:19:53.499Z,5.80
2023-01-08T22:22:21.893Z,5.60
2023-01-08T22:24:52.184Z,5.60
2023-01-08T22:27:21.525Z,5.60
2023-01-08T22:29:50.127Z,5.40
2023-01-08T22:32:18.667Z,5.50
2023-01-08T22:34:46.837Z,5.40
2023-01-08T22:37:16.804Z,5.50
2023-01-08T22:39:46.310Z,5.30
2023-01-08T22:42:16.581Z,5.40
2023-01-08T22:44:44.726Z,5.40
2023-01-08T22:47:12.889Z,5.30
2023-01-08T22:49:41.228Z,5.40
2023-01-08T22:52:09.937Z,5.40
2023-01-08T22:54:39.011Z,5.50
2023-01-08T22:57:07.868Z,5.40
2023-01-08T22:59:37.904Z,5.30
2023-01-08T23:02:06.448Z,5.20
2023-01-08T23:04:34.581Z,5.20
2023-01-08T23:07:02.771Z,5.20
2023-01-08T23:09:30.999Z,5.30
2023-01-08T23:11:59.199Z,5.40
2023-01-08T23:14:27.404Z,5.30
2023-01-08T23:16:56.906Z,5.20
2023-01-08T23:19:25.066Z,5.30
2023-01-08T23:21:53.245Z,5.30
2023-01-08T23:24:21.350Z,5.40
2023-01-08T23:26:49.584Z,5.40
2023-01-08T23:29:17.881Z,5.40
2023-01-08T23:31:46.345Z,5.30
2023-01-08T23:34:16.196Z,5.20
2023-01-08T23:36:44.453Z,5.00
2023-01-08T23:39:12.642Z,5.10
2023-01-08T23:41:41.035Z,5.00
2023-01-08T23:44:14.661Z,5.10
2023-01-08T23:46:43.182Z,4.90
2023-01-08T23:49:11.608Z,5.00
2023-01-08T23:51:42.622Z,4.90
2023-01-08T23:54:11.921Z,4.80
2023-01-08T23:56:41.178Z,4.80
2023-01-08T23:59:09.829Z,4.80
